sensor_id;sensor_type;location;lat;lon;timestamp;temperature;humidity
17172;DHT22;8701;50.150;8.756;2022-07-23T00:03:59;23.60;99.90
17172;DHT22;8701;50.150;8.756;2022-07-23T00:08:02;23.50;99.90
17172;DHT22;8701;50.150;8.756;2022-07-23T00:12:05;23.50;99.90
17172;DHT22;8701;50.150;8.756;2022-07-23T00:16:09;23.40;99.90
17172;DHT22;8701;50.150;8.756;2022-07-23T00:20:12;23.30;99.90
17172;DHT22;8701;50.150;8.756;2022-07-23T00:24:14;23.30;99.90
17172;DHT22;8701;50.150;8.756;2022-07-23T00:28:17;23.20;99.90
17172;DHT22;8701;50.150;8.756;2022-07-23T00:32:21;23.40;99.90
17172;DHT22;8701;50.150;8.756;2022-07-23T00:36:24;23.20;99.90
17172;DHT22;8701;50.150;8.756;2022-07-23T00:40:27;23.20;99.90
17172;DHT22;8701;50.150;8.756;2022-07-23T00:44:30;23.10;99.90
17172;DHT22;8701;50.150;8.756;2022-07-23T00:48:34;23.00;99.90
17172;DHT22;8701;50.150;8.756;2022-07-23T00:52:38;23.00;99.90
17172;DHT22;8701;50.150;8.756;2022-07-23T00:56:42;23.00;99.90
17172;DHT22;8701;50.150;8.756;2022-07-23T01:00:45;22.90;99.90
17172;DHT22;8701;50.150;8.756;2022-07-23T01:04:49;23.10;99.90
17172;DHT22;8701;50.150;8.756;2022-07-23T01:08:51;22.90;99.90
17172;DHT22;8701;50.150;8.756;2022-07-23T01:12:55;22.70;99.90
17172;DHT22;8701;50.150;8.756;2022-07-23T01:16:58;22.60;99.90
17172;DHT22;8701;50.150;8.756;2022-07-23T01:21:04;22.60;99.90
17172;DHT22;8701;50.150;8.756;2022-07-23T01:25:09;22.60;99.90
17172;DHT22;8701;50.150;8.756;2022-07-23T01:29:13;22.40;99.90
17172;DHT22;8701;50.150;8.756;2022-07-23T01:33:17;22.40;99.90
17172;DHT22;8701;50.150;8.756;2022-07-23T01:37:20;22.20;99.90
17172;DHT22;8701;50.150;8.756;2022-07-23T01:41:24;22.40;99.90
17172;DHT22;8701;50.150;8.756;2022-07-23T01:45:27;22.40;99.90
17172;DHT22;8701;50.150;8.756;2022-07-23T01:49:29;22.40;99.90
17172;DHT22;8701;50.150;8.756;2022-07-23T01:53:57;22.40;99.90
17172;DHT22;8701;50.150;8.756;2022-07-23T01:58:02;22.40;99.90
17172;DHT22;8701;50.150;8.756;2022-07-23T02:02:05;22.50;99.90
17172;DHT22;8701;50.150;8.756;2022-07-23T02:06:08;22.30;99.90
17172;DHT22;8701;50.150;8.756;2022-07-23T02:10:11;22.30;99.90
17172;DHT22;8701;50.150;8.756;2022-07-23T02:14:15;22.70;99.90
17172;DHT22;8701;50.150;8.756;2022-07-23T02:18:17;22.10;99.90
17172;DHT22;8701;50.150;8.756;2022-07-23T02:22:20;22.10;99.90
17172;DHT22;8701;50.150;8.756;2022-07-23T02:26:24;22.10;99.90
17172;DHT22;8701;50.150;8.756;2022-07-23T02:30:29;22.10;99.90
17172;DHT22;8701;50.150;8.756;2022-07-23T02:34:32;22.00;99.90
17172;DHT22;8701;50.150;8.756;2022-07-23T02:38:35;22.00;99.90
17172;DHT22;8701;50.150;8.756;2022-07-23T02:42:38;22.00;99.90
17172;DHT22;8701;50.150;8.756;2022-07-23T02:46:43;22.00;99.90
17172;DHT22;8701;50.150;8.756;2022-07-23T02:50:45;22.20;99.90
17172;DHT22;8701;50.150;8.756;2022-07-23T02:54:51;21.90;99.90
17172;DHT22;8701;50.150;8.756;2022-07-23T02:58:54;21.90;99.90
17172;DHT22;8701;50.150;8.756;2022-07-23T03:02:58;21.90;99.90
17172;DHT22;8701;50.150;8.756;2022-07-23T03:12:24;21.90;99.90
17172;DHT22;8701;50.150;8.756;2022-07-23T03:16:27;21.90;99.90
17172;DHT22;8701;50.150;8.756;2022-07-23T03:20:30;21.90;99.90
17172;DHT22;8701;50.150;8.756;2022-07-23T03:24:33;21.90;99.90
17172;DHT22;8701;50.150;8.756;2022-07-23T03:28:53;21.90;99.90
17172;DHT22;8701;50.150;8.756;2022-07-23T03:32:56;21.90;99.90
17172;DHT22;8701;50.150;8.756;2022-07-23T03:36:59;21.90;99.90
17172;DHT22;8701;50.150;8.756;2022-07-23T03:41:02;21.90;99.90
17172;DHT22;8701;50.150;8.756;2022-07-23T03:45:05;21.90;99.90
17172;DHT22;8701;50.150;8.756;2022-07-23T03:49:08;21.80;99.90
17172;DHT22;8701;50.150;8.756;2022-07-23T03:53:11;21.80;99.90
17172;DHT22;8701;50.150;8.756;2022-07-23T03:57:14;21.70;99.90
17172;DHT22;8701;50.150;8.756;2022-07-23T04:01:16;21.70;99.90
17172;DHT22;8701;50.150;8.756;2022-07-23T04:05:18;21.70;99.90
17172;DHT22;8701;50.150;8.756;2022-07-23T04:09:26;21.70;99.90
17172;DHT22;8701;50.150;8.756;2022-07-23T04:13:29;21.70;99.90
17172;DHT22;8701;50.150;8.756;2022-07-23T04:17:33;21.60;99.90
17172;DHT22;8701;50.150;8.756;2022-07-23T04:21:36;21.50;99.90
17172;DHT22;8701;50.150;8.756;2022-07-23T04:25:40;21.50;99.90
17172;DHT22;8701;50.150;8.756;2022-07-23T04:29:42;21.50;99.90
17172;DHT22;8701;50.150;8.756;2022-07-23T04:33:45;21.50;99.90
17172;DHT22;8701;50.150;8.756;2022-07-23T04:37:47;21.40;99.90
17172;DHT22;8701;50.150;8.756;2022-07-23T04:41:53;21.40;99.90
17172;DHT22;8701;50.150;8.756;2022-07-23T04:45:55;21.30;99.90
17172;DHT22;8701;50.150;8.756;2022-07-23T04:49:58;21.20;99.90
17172;DHT22;8701;50.150;8.756;2022-07-23T04:54:01;21.20;99.90
17172;DHT22;8701;50.150;8.756;2022-07-23T04:58:05;21.30;99.90
17172;DHT22;8701;50.150;8.756;2022-07-23T05:02:07;21.30;99.90
17172;DHT22;8701;50.150;8.756;2022-07-23T05:06:11;21.30;99.90
17172;DHT22;8701;50.150;8.756;2022-07-23T05:10:13;21.40;99.90
17172;DHT22;8701;50.150;8.756;2022-07-23T05:14:17;21.40;99.90
17172;DHT22;8701;50.150;8.756;2022-07-23T05:18:23;21.40;99.90
17172;DHT22;8701;50.150;8.756;2022-07-23T05:22:26;21.40;99.90
17172;DHT22;8701;50.150;8.756;2022-07-23T05:26:28;21.30;99.90
17172;DHT22;8701;50.150;8.756;2022-07-23T05:30:32;21.50;99.90
17172;DHT22;8701;50.150;8.756;2022-07-23T05:34:37;21.20;99.90
17172;DHT22;8701;50.150;8.756;2022-07-23T05:38:40;21.30;99.90
17172;DHT22;8701;50.150;8.756;2022-07-23T05:42:42;21.10;99.90
17172;DHT22;8701;50.150;8.756;2022-07-23T05:46:47;21.30;99.90
17172;DHT22;8701;50.150;8.756;2022-07-23T05:50:54;21.30;99.90
17172;DHT22;8701;50.150;8.756;2022-07-23T05:55:05;21.50;99.90
17172;DHT22;8701;50.150;8.756;2022-07-23T05:59:08;21.40;99.90
17172;DHT22;8701;50.150;8.756;2022-07-23T06:03:14;21.60;99.90
17172;DHT22;8701;50.150;8.756;2022-07-23T06:07:17;21.40;99.90
17172;DHT22;8701;50.150;8.756;2022-07-23T06:11:22;21.70;99.90
17172;DHT22;8701;50.150;8.756;2022-07-23T06:15:25;21.40;99.90
17172;DHT22;8701;50.150;8.756;2022-07-23T06:19:33;21.40;99.90
17172;DHT22;8701;50.150;8.756;2022-07-23T06:23:36;21.30;99.90
17172;DHT22;8701;50.150;8.756;2022-07-23T06:27:38;21.50;99.90
17172;DHT22;8701;50.150;8.756;2022-07-23T06:31:41;21.60;99.90
17172;DHT22;8701;50.150;8.756;2022-07-23T06:35:44;21.80;99.90
17172;DHT22;8701;50.150;8.756;2022-07-23T06:39:47;21.90;99.90
17172;DHT22;8701;50.150;8.756;2022-07-23T06:43:49;21.90;99.90
17172;DHT22;8701;50.150;8.756;2022-07-23T06:47:52;22.00;99.90
17172;DHT22;8701;50.150;8.756;2022-07-23T06:51:56;22.10;99.90
17172;DHT22;8701;50.150;8.756;2022-07-23T06:55:58;22.20;99.90
17172;DHT22;8701;50.150;8.756;2022-07-23T07:00:01;22.40;99.90
17172;DHT22;8701;50.150;8.756;2022-07-23T07:04:03;22.50;99.90
17172;DHT22;8701;50.150;8.756;2022-07-23T07:08:07;22.80;99.90
17172;DHT22;8701;50.150;8.756;2022-07-23T07:12:09;22.70;99.90
17172;DHT22;8701;50.150;8.756;2022-07-23T07:16:13;22.90;99.90
17172;DHT22;8701;50.150;8.756;2022-07-23T07:20:15;23.00;99.90
17172;DHT22;8701;50.150;8.756;2022-07-23T07:24:19;23.10;99.90
17172;DHT22;8701;50.150;8.756;2022-07-23T07:28:21;23.20;99.90
17172;DHT22;8701;50.150;8.756;2022-07-23T07:32:24;23.40;99.90
17172;DHT22;8701;50.150;8.756;2022-07-23T07:36:26;23.50;99.90
17172;DHT22;8701;50.150;8.756;2022-07-23T07:40:30;23.60;99.90
17172;DHT22;8701;50.150;8.756;2022-07-23T07:44:33;23.80;99.90
17172;DHT22;8701;50.150;8.756;2022-07-23T07:48:35;23.90;99.90
17172;DHT22;8701;50.150;8.756;2022-07-23T07:52:38;23.90;99.90
17172;DHT22;8701;50.150;8.756;2022-07-23T07:56:42;24.00;99.90
17172;DHT22;8701;50.150;8.756;2022-07-23T08:00:45;24.20;99.90
17172;DHT22;8701;50.150;8.756;2022-07-23T08:04:47;24.50;99.90
17172;DHT22;8701;50.150;8.756;2022-07-23T09:08:16;29.00;99.90
17172;DHT22;8701;50.150;8.756;2022-07-23T09:12:19;29.50;97.90
17172;DHT22;8701;50.150;8.756;2022-07-23T09:16:24;29.80;97.10
17172;DHT22;8701;50.150;8.756;2022-07-23T09:20:27;30.20;97.80
17172;DHT22;8701;50.150;8.756;2022-07-23T09:24:31;30.60;96.20
17172;DHT22;8701;50.150;8.756;2022-07-23T09:28:50;30.90;95.90
17172;DHT22;8701;50.150;8.756;2022-07-23T09:33:09;31.40;94.40
17172;DHT22;8701;50.150;8.756;2022-07-23T09:37:18;32.00;92.70
17172;DHT22;8701;50.150;8.756;2022-07-23T09:41:36;32.40;92.70
17172;DHT22;8701;50.150;8.756;2022-07-23T09:45:38;32.80;92.50
17172;DHT22;8701;50.150;8.756;2022-07-23T09:49:57;33.20;90.50
17172;DHT22;8701;50.150;8.756;2022-07-23T09:54:00;32.80;92.60
17172;DHT22;8701;50.150;8.756;2022-07-23T09:58:05;32.70;90.40
17172;DHT22;8701;50.150;8.756;2022-07-23T10:02:11;32.10;91.10
17172;DHT22;8701;50.150;8.756;2022-07-23T10:06:46;32.20;90.20
17172;DHT22;8701;50.150;8.756;2022-07-23T10:11:07;32.20;92.60
17172;DHT22;8701;50.150;8.756;2022-07-23T10:15:13;31.90;87.90
17172;DHT22;8701;50.150;8.756;2022-07-23T10:19:16;31.60;91.70
17172;DHT22;8701;50.150;8.756;2022-07-23T10:23:24;31.20;90.10
17172;DHT22;8701;50.150;8.756;2022-07-23T10:27:41;30.70;91.80
17172;DHT22;8701;50.150;8.756;2022-07-23T10:31:58;31.00;91.60
17172;DHT22;8701;50.150;8.756;2022-07-23T10:36:09;32.10;92.80
17172;DHT22;8701;50.150;8.756;2022-07-23T10:40:13;33.10;87.60
17172;DHT22;8701;50.150;8.756;2022-07-23T10:44:19;33.60;85.80
17172;DHT22;8701;50.150;8.756;2022-07-23T10:48:26;33.90;84.70
17172;DHT22;8701;50.150;8.756;2022-07-23T10:52:28;34.10;80.00
17172;DHT22;8701;50.150;8.756;2022-07-23T10:57:04;33.90;84.40
17172;DHT22;8701;50.150;8.756;2022-07-23T11:01:32;34.10;80.20
17172;DHT22;8701;50.150;8.756;2022-07-23T11:05:45;34.30;77.30
17172;DHT22;8701;50.150;8.756;2022-07-23T11:09:47;33.70;82.70
17172;DHT22;8701;50.150;8.756;2022-07-23T11:13:50;33.80;80.10
17172;DHT22;8701;50.150;8.756;2022-07-23T11:17:59;34.00;78.80
17172;DHT22;8701;50.150;8.756;2022-07-23T11:22:03;34.10;77.70
17172;DHT22;8701;50.150;8.756;2022-07-23T11:26:05;34.00;80.00
17172;DHT22;8701;50.150;8.756;2022-07-23T11:30:12;33.80;76.70
17172;DHT22;8701;50.150;8.756;2022-07-23T11:34:34;33.80;78.10
17172;DHT22;8701;50.150;8.756;2022-07-23T11:38:38;34.00;76.40
17172;DHT22;8701;50.150;8.756;2022-07-23T11:42:52;34.00;78.90
17172;DHT22;8701;50.150;8.756;2022-07-23T11:46:58;34.00;77.50
17172;DHT22;8701;50.150;8.756;2022-07-23T11:51:01;33.80;73.80
17172;DHT22;8701;50.150;8.756;2022-07-23T11:55:06;33.70;77.80
17172;DHT22;8701;50.150;8.756;2022-07-23T11:59:09;33.80;76.80
17172;DHT22;8701;50.150;8.756;2022-07-23T12:03:12;34.00;79.20
17172;DHT22;8701;50.150;8.756;2022-07-23T12:07:29;34.20;76.00
17172;DHT22;8701;50.150;8.756;2022-07-23T12:11:33;34.10;75.80
17172;DHT22;8701;50.150;8.756;2022-07-23T12:15:38;33.90;74.10
17172;DHT22;8701;50.150;8.756;2022-07-23T12:19:41;33.60;75.40
17172;DHT22;8701;50.150;8.756;2022-07-23T12:23:48;33.60;75.60
17172;DHT22;8701;50.150;8.756;2022-07-23T12:28:01;34.00;75.10
17172;DHT22;8701;50.150;8.756;2022-07-23T12:32:17;34.30;76.90
17172;DHT22;8701;50.150;8.756;2022-07-23T12:36:19;34.30;75.80
17172;DHT22;8701;50.150;8.756;2022-07-23T12:40:24;34.10;72.50
17172;DHT22;8701;50.150;8.756;2022-07-23T12:44:28;33.70;74.70
17172;DHT22;8701;50.150;8.756;2022-07-23T12:48:32;33.70;76.70
17172;DHT22;8701;50.150;8.756;2022-07-23T12:52:37;33.60;76.70
17172;DHT22;8701;50.150;8.756;2022-07-23T12:56:43;34.00;74.20
17172;DHT22;8701;50.150;8.756;2022-07-23T13:01:05;33.70;74.00
17172;DHT22;8701;50.150;8.756;2022-07-23T13:05:08;33.70;71.90
17172;DHT22;8701;50.150;8.756;2022-07-23T13:09:12;33.70;75.90
17172;DHT22;8701;50.150;8.756;2022-07-23T13:13:15;33.60;73.90
17172;DHT22;8701;50.150;8.756;2022-07-23T13:17:19;33.50;76.30
17172;DHT22;8701;50.150;8.756;2022-07-23T13:21:21;33.40;71.60
17172;DHT22;8701;50.150;8.756;2022-07-23T13:25:23;32.90;75.50
17172;DHT22;8701;50.150;8.756;2022-07-23T13:29:26;32.60;77.30
17172;DHT22;8701;50.150;8.756;2022-07-23T13:33:30;32.80;76.10
17172;DHT22;8701;50.150;8.756;2022-07-23T13:37:32;33.00;76.90
17172;DHT22;8701;50.150;8.756;2022-07-23T13:41:35;32.90;77.40
17172;DHT22;8701;50.150;8.756;2022-07-23T13:45:38;32.80;76.70
17172;DHT22;8701;50.150;8.756;2022-07-23T13:49:42;32.60;72.60
17172;DHT22;8701;50.150;8.756;2022-07-23T13:53:45;32.60;75.70
17172;DHT22;8701;50.150;8.756;2022-07-23T13:57:48;32.60;78.20
17172;DHT22;8701;50.150;8.756;2022-07-23T14:01:50;32.70;76.90
17172;DHT22;8701;50.150;8.756;2022-07-23T14:05:54;32.60;76.00
17172;DHT22;8701;50.150;8.756;2022-07-23T14:09:56;32.20;77.50
17172;DHT22;8701;50.150;8.756;2022-07-23T14:13:59;31.80;73.50
17172;DHT22;8701;50.150;8.756;2022-07-23T14:18:03;31.90;76.60
17172;DHT22;8701;50.150;8.756;2022-07-23T14:22:07;32.10;76.90
17172;DHT22;8701;50.150;8.756;2022-07-23T14:26:09;32.00;74.50
17172;DHT22;8701;50.150;8.756;2022-07-23T14:30:13;32.10;77.10
17172;DHT22;8701;50.150;8.756;2022-07-23T14:34:15;32.10;78.30
17172;DHT22;8701;50.150;8.756;2022-07-23T14:38:20;31.90;79.10
17172;DHT22;8701;50.150;8.756;2022-07-23T14:42:23;31.70;79.20
17172;DHT22;8701;50.150;8.756;2022-07-23T14:46:26;31.60;79.60
17172;DHT22;8701;50.150;8.756;2022-07-23T14:50:29;31.60;80.20
17172;DHT22;8701;50.150;8.756;2022-07-23T14:54:33;31.60;80.50
17172;DHT22;8701;50.150;8.756;2022-07-23T14:58:36;31.70;78.40
17172;DHT22;8701;50.150;8.756;2022-07-23T15:02:39;31.60;77.30
17172;DHT22;8701;50.150;8.756;2022-07-23T15:06:41;31.30;79.50
17172;DHT22;8701;50.150;8.756;2022-07-23T15:10:45;31.10;80.00
17172;DHT22;8701;50.150;8.756;2022-07-23T15:14:48;31.10;79.70
17172;DHT22;8701;50.150;8.756;2022-07-23T15:18:50;31.00;80.60
17172;DHT22;8701;50.150;8.756;2022-07-23T15:22:53;30.90;80.80
17172;DHT22;8701;50.150;8.756;2022-07-23T15:27:01;30.90;79.60
17172;DHT22;8701;50.150;8.756;2022-07-23T15:31:04;30.70;78.30
17172;DHT22;8701;50.150;8.756;2022-07-23T15:35:07;30.60;80.10
17172;DHT22;8701;50.150;8.756;2022-07-23T15:39:10;30.60;80.90
17172;DHT22;8701;50.150;8.756;2022-07-23T15:43:14;30.50;81.00
17172;DHT22;8701;50.150;8.756;2022-07-23T15:47:17;30.40;79.10
17172;DHT22;8701;50.150;8.756;2022-07-23T15:51:21;30.30;80.20
17172;DHT22;8701;50.150;8.756;2022-07-23T15:55:23;30.30;80.50
17172;DHT22;8701;50.150;8.756;2022-07-23T15:59:27;30.20;80.10
17172;DHT22;8701;50.150;8.756;2022-07-23T16:03:30;30.10;80.10
17172;DHT22;8701;50.150;8.756;2022-07-23T16:07:32;30.00;81.20
17172;DHT22;8701;50.150;8.756;2022-07-23T16:11:37;29.80;81.00
17172;DHT22;8701;50.150;8.756;2022-07-23T16:15:41;29.90;80.30
17172;DHT22;8701;50.150;8.756;2022-07-23T16:19:44;29.70;74.10
17172;DHT22;8701;50.150;8.756;2022-07-23T16:23:47;29.70;76.50
17172;DHT22;8701;50.150;8.756;2022-07-23T16:27:50;29.60;78.50
17172;DHT22;8701;50.150;8.756;2022-07-23T16:31:54;29.50;80.90
17172;DHT22;8701;50.150;8.756;2022-07-23T16:35:56;29.30;78.00
17172;DHT22;8701;50.150;8.756;2022-07-23T16:39:58;29.30;81.40
17172;DHT22;8701;50.150;8.756;2022-07-23T16:44:01;29.30;81.20
17172;DHT22;8701;50.150;8.756;2022-07-23T16:48:04;29.20;83.20
17172;DHT22;8701;50.150;8.756;2022-07-23T16:52:07;29.20;77.20
17172;DHT22;8701;50.150;8.756;2022-07-23T16:56:09;29.20;79.20
17172;DHT22;8701;50.150;8.756;2022-07-23T17:00:12;29.10;81.30
17172;DHT22;8701;50.150;8.756;2022-07-23T17:04:16;29.00;80.80
17172;DHT22;8701;50.150;8.756;2022-07-23T17:08:19;29.10;78.80
17172;DHT22;8701;50.150;8.756;2022-07-23T17:12:21;29.10;79.40
17172;DHT22;8701;50.150;8.756;2022-07-23T17:16:24;29.00;76.60
17172;DHT22;8701;50.150;8.756;2022-07-23T17:20:28;28.90;77.00
17172;DHT22;8701;50.150;8.756;2022-07-23T17:24:31;28.80;75.20
17172;DHT22;8701;50.150;8.756;2022-07-23T17:28:33;28.70;78.60
17172;DHT22;8701;50.150;8.756;2022-07-23T17:32:36;28.70;78.70
17172;DHT22;8701;50.150;8.756;2022-07-23T17:36:40;28.70;78.80
17172;DHT22;8701;50.150;8.756;2022-07-23T17:40:42;28.70;79.40
17172;DHT22;8701;50.150;8.756;2022-07-23T17:44:44;28.50;80.20
17172;DHT22;8701;50.150;8.756;2022-07-23T17:48:47;28.50;78.20
17172;DHT22;8701;50.150;8.756;2022-07-23T17:52:52;28.40;76.40
17172;DHT22;8701;50.150;8.756;2022-07-23T17:56:54;28.40;79.80
17172;DHT22;8701;50.150;8.756;2022-07-23T18:00:57;28.50;80.60
17172;DHT22;8701;50.150;8.756;2022-07-23T18:04:59;28.40;79.00
17172;DHT22;8701;50.150;8.756;2022-07-23T18:09:03;28.20;80.90
17172;DHT22;8701;50.150;8.756;2022-07-23T18:13:06;28.20;81.20
17172;DHT22;8701;50.150;8.756;2022-07-23T18:17:08;28.20;79.00
17172;DHT22;8701;50.150;8.756;2022-07-23T18:21:11;28.10;78.90
17172;DHT22;8701;50.150;8.756;2022-07-23T18:25:15;28.00;79.40
17172;DHT22;8701;50.150;8.756;2022-07-23T18:29:18;28.00;80.10
17172;DHT22;8701;50.150;8.756;2022-07-23T18:33:24;27.90;78.70
17172;DHT22;8701;50.150;8.756;2022-07-23T18:37:26;27.90;80.40
17172;DHT22;8701;50.150;8.756;2022-07-23T18:41:30;27.90;79.70
17172;DHT22;8701;50.150;8.756;2022-07-23T18:45:32;27.80;80.00
17172;DHT22;8701;50.150;8.756;2022-07-23T18:49:37;27.90;80.40
17172;DHT22;8701;50.150;8.756;2022-07-23T18:53:39;27.70;80.60
17172;DHT22;8701;50.150;8.756;2022-07-23T18:57:43;27.60;81.70
17172;DHT22;8701;50.150;8.756;2022-07-23T19:01:46;27.50;81.80
17172;DHT22;8701;50.150;8.756;2022-07-23T19:05:49;27.50;82.30
17172;DHT22;8701;50.150;8.756;2022-07-23T19:09:51;27.30;81.70
17172;DHT22;8701;50.150;8.756;2022-07-23T19:13:55;27.40;81.70
17172;DHT22;8701;50.150;8.756;2022-07-23T19:17:57;27.20;82.80
17172;DHT22;8701;50.150;8.756;2022-07-23T19:22:00;27.10;81.80
17172;DHT22;8701;50.150;8.756;2022-07-23T19:26:03;27.10;82.60
17172;DHT22;8701;50.150;8.756;2022-07-23T19:30:09;27.00;82.00
17172;DHT22;8701;50.150;8.756;2022-07-23T19:34:11;26.90;83.70
17172;DHT22;8701;50.150;8.756;2022-07-23T19:38:15;26.90;82.50
17172;DHT22;8701;50.150;8.756;2022-07-23T19:42:17;26.80;83.40
17172;DHT22;8701;50.150;8.756;2022-07-23T19:46:21;26.70;81.90
17172;DHT22;8701;50.150;8.756;2022-07-23T19:50:23;26.90;82.10
17172;DHT22;8701;50.150;8.756;2022-07-23T19:54:27;26.50;83.40
17172;DHT22;8701;50.150;8.756;2022-07-23T19:58:29;26.50;83.10
17172;DHT22;8701;50.150;8.756;2022-07-23T20:02:33;26.40;83.60
17172;DHT22;8701;50.150;8.756;2022-07-23T20:06:36;26.40;84.10
17172;DHT22;8701;50.150;8.756;2022-07-23T20:10:38;26.30;85.00
17172;DHT22;8701;50.150;8.756;2022-07-23T20:14:41;26.30;84.80
17172;DHT22;8701;50.150;8.756;2022-07-23T20:18:45;26.50;84.70
17172;DHT22;8701;50.150;8.756;2022-07-23T20:22:47;26.40;85.00
17172;DHT22;8701;50.150;8.756;2022-07-23T20:26:50;26.00;84.20
17172;DHT22;8701;50.150;8.756;2022-07-23T20:30:53;26.00;84.80
17172;DHT22;8701;50.150;8.756;2022-07-23T20:34:57;26.10;84.50
17172;DHT22;8701;50.150;8.756;2022-07-23T20:38:59;25.90;85.70
17172;DHT22;8701;50.150;8.756;2022-07-23T20:43:02;25.80;85.30
17172;DHT22;8701;50.150;8.756;2022-07-23T20:47:04;25.70;86.30
17172;DHT22;8701;50.150;8.756;2022-07-23T20:51:08;25.60;87.50
17172;DHT22;8701;50.150;8.756;2022-07-23T20:55:11;25.60;87.00
17172;DHT22;8701;50.150;8.756;2022-07-23T20:59:14;25.50;87.40
17172;DHT22;8701;50.150;8.756;2022-07-23T21:03:16;25.60;87.90
17172;DHT22;8701;50.150;8.756;2022-07-23T21:07:20;25.40;87.70
17172;DHT22;8701;50.150;8.756;2022-07-23T21:11:22;25.30;88.60
17172;DHT22;8701;50.150;8.756;2022-07-23T21:15:25;25.30;88.10
17172;DHT22;8701;50.150;8.756;2022-07-23T21:19:28;25.30;88.80
17172;DHT22;8701;50.150;8.756;2022-07-23T21:23:32;25.30;88.20
17172;DHT22;8701;50.150;8.756;2022-07-23T21:27:35;25.20;89.50
17172;DHT22;8701;50.150;8.756;2022-07-23T21:31:37;25.10;88.90
17172;DHT22;8701;50.150;8.756;2022-07-23T21:35:40;25.30;89.70
17172;DHT22;8701;50.150;8.756;2022-07-23T21:39:43;25.00;90.10
17172;DHT22;8701;50.150;8.756;2022-07-23T21:43:46;24.90;89.50
17172;DHT22;8701;50.150;8.756;2022-07-23T21:47:48;24.80;90.10
17172;DHT22;8701;50.150;8.756;2022-07-23T21:51:51;24.80;90.50
17172;DHT22;8701;50.150;8.756;2022-07-23T21:55:54;24.70;90.70
17172;DHT22;8701;50.150;8.756;2022-07-23T21:59:57;24.60;91.00
17172;DHT22;8701;50.150;8.756;2022-07-23T22:03:59;24.60;90.50
17172;DHT22;8701;50.150;8.756;2022-07-23T22:08:02;24.50;91.00
17172;DHT22;8701;50.150;8.756;2022-07-23T22:12:06;24.50;91.20
17172;DHT22;8701;50.150;8.756;2022-07-23T22:16:09;24.40;91.00
17172;DHT22;8701;50.150;8.756;2022-07-23T22:20:12;24.30;91.30
17172;DHT22;8701;50.150;8.756;2022-07-23T22:24:16;24.30;91.20
17172;DHT22;8701;50.150;8.756;2022-07-23T22:28:20;24.50;91.50
17172;DHT22;8701;50.150;8.756;2022-07-23T22:32:22;24.10;91.40
17172;DHT22;8701;50.150;8.756;2022-07-23T22:36:24;24.10;91.40
17172;DHT22;8701;50.150;8.756;2022-07-23T22:40:27;24.00;91.70
17172;DHT22;8701;50.150;8.756;2022-07-23T22:44:31;24.00;91.90
17172;DHT22;8701;50.150;8.756;2022-07-23T22:48:33;23.90;91.90
17172;DHT22;8701;50.150;8.756;2022-07-23T22:52:36;24.00;92.30
17172;DHT22;8701;50.150;8.756;2022-07-23T22:56:38;23.80;92.60
17172;DHT22;8701;50.150;8.756;2022-07-23T23:00:42;23.80;92.30
17172;DHT22;8701;50.150;8.756;2022-07-23T23:04:44;23.90;92.40
17172;DHT22;8701;50.150;8.756;2022-07-23T23:08:48;23.80;92.30
17172;DHT22;8701;50.150;8.756;2022-07-23T23:12:50;23.70;92.50
17172;DHT22;8701;50.150;8.756;2022-07-23T23:16:55;23.60;92.60
17172;DHT22;8701;50.150;8.756;2022-07-23T23:20:58;23.60;92.60
17172;DHT22;8701;50.150;8.756;2022-07-23T23:25:02;23.80;92.70
17172;DHT22;8701;50.150;8.756;2022-07-23T23:29:05;23.50;92.80
17172;DHT22;8701;50.150;8.756;2022-07-23T23:33:09;23.40;92.80
17172;DHT22;8701;50.150;8.756;2022-07-23T23:37:12;23.30;93.00
17172;DHT22;8701;50.150;8.756;2022-07-23T23:41:14;23.30;93.50
17172;DHT22;8701;50.150;8.756;2022-07-23T23:45:17;23.20;93.30
17172;DHT22;8701;50.150;8.756;2022-07-23T23:49:21;23.20;93.10
17172;DHT22;8701;50.150;8.756;2022-07-23T23:53:23;23.10;93.20
17172;DHT22;8701;50.150;8.756;2022-07-23T23:57:27;23.10;93.20
